KBIH

Bishop Airport

Bishop, California, USA
METAR KBIH 252156Z AUTO 16016G26KT 10SM CLR 26/M03 A2984 RMK AO2 PK WND 16030/2115 SLP058 T02611028
Observed Flight Rules
May-25 @ 21:56 UTC (37 minutes ago) Visual Flight Rules
Wind Visibility Clouds
160° at 16 knots
 Gusting to 26 knots
10 miles
  • Clear skies
Temperatures Readings
Current 26°C / 79°F
Dewpoint -3°C / 27°F
Humidity 15%
Altimeter 29.84" Hg
Pressure 1005.8 hPa
Elevation 1253
METAR KBIH 252156Z AUTO 16016G26KT 10SM CLR 26/M03 A2984 RMK AO2 PK WND 16030/2115 SLP058 T02611028
Observed Flight Rules
May-25 @ 21:56 UTC
(37 minutes ago)
VFR
Wind Visibility
160° at 16 knots
 Gusting to 26 knots
10 miles
Clouds
  • Clear skies
Temperature Dewpoint
26°C / 79°F -3°C / 27°F
Humidity Altimeter Pressure
15% 29.84" Hg 1005.8 hPa